createdAt,value
2019-02-18T00:00:43.850Z,75.33
2019-02-18T00:03:13.634Z,76.05
2019-02-18T00:05:43.360Z,75.75
2019-02-18T00:08:13.147Z,76.11
2019-02-18T00:10:42.903Z,75.98
2019-02-18T00:13:12.632Z,76.96
2019-02-18T00:15:43.886Z,75.66
2019-02-18T00:18:13.642Z,74.99
2019-02-18T00:20:43.405Z,74.42
2019-02-18T00:23:13.167Z,74.11
2019-02-18T00:25:42.909Z,74.07
2019-02-18T00:28:12.698Z,74.44
2019-02-18T00:30:42.424Z,74.20
2019-02-18T00:33:12.285Z,76.69
2019-02-18T00:35:42.055Z,75.91
2019-02-18T00:38:11.773Z,75.77
2019-02-18T00:40:41.565Z,76.42
2019-02-18T00:43:11.297Z,75.30
2019-02-18T00:45:41.051Z,74.36
2019-02-18T00:48:10.737Z,74.62
2019-02-18T00:50:40.519Z,75.17
2019-02-18T00:53:10.213Z,74.76
2019-02-18T00:55:39.979Z,75.24
2019-02-18T00:58:09.726Z,75.21
2019-02-18T01:00:39.459Z,75.96
2019-02-18T01:03:09.231Z,75.17
2019-02-18T01:05:38.959Z,74.62
2019-02-18T01:08:08.746Z,74.29
2019-02-18T01:10:38.481Z,74.49
2019-02-18T01:13:08.253Z,74.00
2019-02-18T01:15:38.009Z,74.19
2019-02-18T01:18:07.789Z,75.95
2019-02-18T01:20:39.057Z,77.34
2019-02-18T01:23:10.348Z,77.05
2019-02-18T01:25:41.558Z,77.10
2019-02-18T01:28:12.778Z,77.29
2019-02-18T01:30:43.987Z,76.38
2019-02-18T01:33:15.214Z,75.58
2019-02-18T01:35:46.408Z,75.47
2019-02-18T01:40:56.466Z,75.11
2019-02-18T01:43:26.243Z,74.89
2019-02-18T01:45:55.962Z,75.02
2019-02-18T01:48:25.732Z,74.62
2019-02-18T01:50:55.539Z,74.80
2019-02-18T01:53:25.231Z,74.66
2019-02-18T01:55:54.976Z,75.78
2019-02-18T01:58:24.784Z,75.04
2019-02-18T02:00:54.554Z,76.00
2019-02-18T02:03:25.282Z,74.89
2019-02-18T02:05:55.234Z,74.57
2019-02-18T02:08:24.950Z,75.46
2019-02-18T02:10:54.704Z,75.57
2019-02-18T02:13:30.142Z,74.74
2019-02-18T02:16:00.928Z,74.62
2019-02-18T02:18:30.646Z,74.38
2019-02-18T02:21:00.410Z,74.29
2019-02-18T02:23:30.167Z,75.17
2019-02-18T02:25:59.952Z,75.35
2019-02-18T02:28:29.707Z,75.74
2019-02-18T02:31:01.052Z,75.08
2019-02-18T02:33:30.916Z,74.68
2019-02-18T02:36:00.647Z,74.68
2019-02-18T02:38:30.411Z,74.44
2019-02-18T02:41:00.179Z,74.53
2019-02-18T02:43:29.898Z,74.53
2019-02-18T02:45:59.646Z,74.50
2019-02-18T02:48:29.403Z,74.57
2019-02-18T02:50:59.162Z,75.43
2019-02-18T02:53:28.819Z,75.30
2019-02-18T02:55:58.593Z,75.07
2019-02-18T02:58:28.410Z,75.25
2019-02-18T03:00:58.127Z,75.25
2019-02-18T03:03:27.764Z,75.20
2019-02-18T03:05:57.479Z,75.07
2019-02-18T03:08:27.128Z,76.13
2019-02-18T03:10:56.888Z,75.46
2019-02-18T03:13:26.644Z,75.91
2019-02-18T03:15:56.302Z,75.94
2019-02-18T03:18:26.078Z,76.11
2019-02-18T03:20:55.804Z,77.02
2019-02-18T03:23:25.507Z,76.70
2019-02-18T03:25:55.231Z,76.43
2019-02-18T03:28:40.090Z,77.10
2019-02-18T03:31:12.938Z,77.23
2019-02-18T03:33:51.582Z,77.44
2019-02-18T03:36:21.295Z,77.47
2019-02-18T03:38:50.976Z,78.24
2019-02-18T03:41:20.730Z,78.71
2019-02-18T03:43:50.450Z,78.60
2019-02-18T03:46:20.238Z,78.40
2019-02-18T03:48:49.899Z,77.90
2019-02-18T03:51:19.676Z,78.23
2019-02-18T03:53:49.333Z,77.92
2019-02-18T03:56:19.024Z,77.87
2019-02-18T03:58:48.779Z,77.94
2019-02-18T04:01:18.506Z,77.76
2019-02-18T04:03:48.284Z,77.44
2019-02-18T04:06:18.010Z,77.59
2019-02-18T04:08:47.787Z,77.54
2019-02-18T04:11:17.514Z,77.58
2019-02-18T04:13:47.268Z,78.41
2019-02-18T04:16:17.021Z,78.23
2019-02-18T04:18:46.747Z,78.15
2019-02-18T04:21:16.526Z,77.95
2019-02-18T04:23:46.272Z,77.67
2019-02-18T04:26:15.911Z,77.72
2019-02-18T04:28:45.690Z,77.47
2019-02-18T04:31:15.409Z,77.73
2019-02-18T04:33:45.055Z,77.75
2019-02-18T04:36:14.764Z,77.81
2019-02-18T04:38:53.806Z,77.64
2019-02-18T04:41:15.953Z,77.23
2019-02-18T04:43:45.682Z,76.77
2019-02-18T04:46:15.453Z,76.61
2019-02-18T04:48:45.125Z,76.49
2019-02-18T04:51:14.840Z,76.29
2019-02-18T04:53:45.093Z,76.17
2019-02-18T04:56:14.752Z,76.27
2019-02-18T04:58:44.519Z,76.09
2019-02-18T05:01:14.273Z,75.92
2019-02-18T05:03:43.996Z,75.91
2019-02-18T05:06:13.791Z,75.97
2019-02-18T05:08:43.511Z,75.91
2019-02-18T05:11:13.297Z,76.00
2019-02-18T05:13:45.782Z,75.96
2019-02-18T05:16:14.351Z,75.77
2019-02-18T05:18:44.078Z,75.67
2019-02-18T05:21:13.843Z,75.64
2019-02-18T05:23:43.564Z,75.84
2019-02-18T05:26:13.280Z,75.93
2019-02-18T05:28:43.002Z,75.56
2019-02-18T05:31:12.746Z,75.54
2019-02-18T05:33:42.501Z,76.13
2019-02-18T05:36:12.231Z,75.81
2019-02-18T05:38:42.027Z,75.85
2019-02-18T05:41:11.755Z,75.95
2019-02-18T05:43:43.119Z,75.60
2019-02-18T05:46:12.885Z,75.91
2019-02-18T05:48:42.694Z,75.83
2019-02-18T05:51:12.446Z,75.81
2019-02-18T05:53:42.181Z,75.84
2019-02-18T05:56:11.901Z,75.62
2019-02-18T05:58:41.622Z,75.65
2019-02-18T06:01:11.413Z,75.45
2019-02-18T06:03:41.141Z,75.53
2019-02-18T06:06:10.877Z,75.40
2019-02-18T06:08:40.753Z,75.28
2019-02-18T06:11:10.481Z,75.37
2019-02-18T06:13:40.203Z,75.17
2019-02-18T06:16:09.993Z,75.28
2019-02-18T06:18:39.724Z,75.13
2019-02-18T06:21:09.452Z,75.16
2019-02-18T06:23:39.249Z,75.57
2019-02-18T06:26:08.986Z,75.43
2019-02-18T06:28:38.709Z,75.02
2019-02-18T06:31:08.488Z,75.56
2019-02-18T06:33:38.212Z,75.57
2019-02-18T06:36:07.930Z,75.09
2019-02-18T06:38:39.166Z,75.24
2019-02-18T06:41:08.891Z,75.40
2019-02-18T06:43:38.614Z,75.36
2019-02-18T06:46:13.009Z,75.35
2019-02-18T06:48:44.309Z,75.53
2019-02-18T06:51:14.039Z,74.82
2019-02-18T06:53:43.829Z,75.06
2019-02-18T06:56:13.552Z,74.97
2019-02-18T06:58:44.851Z,74.54
2019-02-18T07:01:25.366Z,74.84
2019-02-18T07:04:08.931Z,74.80
2019-02-18T07:06:40.527Z,75.66
2019-02-18T07:09:18.095Z,75.43
2019-02-18T07:11:52.203Z,75.57
2019-02-18T07:14:21.931Z,75.46
2019-02-18T07:16:51.640Z,75.62
2019-02-18T07:19:21.363Z,75.44
2019-02-18T07:21:51.118Z,75.23
2019-02-18T07:24:20.877Z,75.56
2019-02-18T07:26:50.599Z,75.20
2019-02-18T07:29:20.372Z,75.17
2019-02-18T07:31:50.107Z,74.22
2019-02-18T07:34:19.875Z,74.90
2019-02-18T07:36:49.590Z,74.65
2019-02-18T07:39:19.347Z,74.83
2019-02-18T07:41:49.102Z,74.42
2019-02-18T07:44:18.799Z,74.67
2019-02-18T07:46:48.558Z,74.40
2019-02-18T07:49:18.332Z,74.74
2019-02-18T07:51:48.074Z,74.40
2019-02-18T07:54:17.734Z,73.88
2019-02-18T07:56:47.509Z,74.08
2019-02-18T07:59:17.588Z,73.83
2019-02-18T08:01:47.375Z,72.95
2019-02-18T08:04:17.093Z,73.84
2019-02-18T08:06:46.846Z,73.67
2019-02-18T08:09:16.671Z,73.71
2019-02-18T08:11:46.392Z,73.45
2019-02-18T08:14:16.162Z,73.13
2019-02-18T08:16:45.883Z,72.59
2019-02-18T08:19:15.808Z,72.45
2019-02-18T08:21:45.604Z,72.06
2019-02-18T08:24:15.336Z,71.99
2019-02-18T08:26:45.049Z,71.99
2019-02-18T08:29:14.781Z,72.41
2019-02-18T08:31:44.538Z,72.07
2019-02-18T08:34:14.298Z,72.18
2019-02-18T08:36:44.013Z,71.95
2019-02-18T08:39:13.799Z,71.91
2019-02-18T08:41:43.521Z,71.29
2019-02-18T08:44:13.309Z,71.19
2019-02-18T08:46:43.066Z,71.30
2019-02-18T08:49:12.818Z,71.49
2019-02-18T08:51:42.611Z,71.32
2019-02-18T08:54:12.377Z,71.14
2019-02-18T08:56:42.157Z,71.20
2019-02-18T08:59:11.881Z,71.11
2019-02-18T09:01:42.165Z,71.15
2019-02-18T09:04:11.885Z,70.83
2019-02-18T09:06:41.638Z,70.68
2019-02-18T09:09:11.886Z,70.43
2019-02-18T09:11:41.612Z,69.92
2019-02-18T09:14:11.580Z,69.42
2019-02-18T09:16:41.298Z,69.69
2019-02-18T09:19:11.046Z,68.93
2019-02-18T09:21:40.800Z,68.73
2019-02-18T09:24:15.181Z,68.59
2019-02-18T09:26:44.829Z,68.57
2019-02-18T09:29:14.620Z,68.44
2019-02-18T09:31:44.337Z,67.46
2019-02-18T09:34:14.192Z,67.36
2019-02-18T09:36:43.944Z,66.83
2019-02-18T09:39:16.727Z,65.34
2019-02-18T09:41:46.721Z,64.29
2019-02-18T09:44:16.440Z,63.36
2019-02-18T09:46:46.214Z,62.60
2019-02-18T09:49:15.960Z,62.01
2019-02-18T09:51:45.678Z,61.61
2019-02-18T09:54:15.459Z,61.34
2019-02-18T09:56:45.176Z,61.14
2019-02-18T09:59:14.929Z,61.11
2019-02-18T10:01:44.684Z,60.78
2019-02-18T10:04:14.399Z,60.40
2019-02-18T10:06:44.172Z,59.95
2019-02-18T10:09:13.894Z,60.12
2019-02-18T10:11:43.693Z,59.28
2019-02-18T10:14:13.463Z,58.75
2019-02-18T10:16:43.174Z,57.81
2019-02-18T10:19:13.028Z,56.74
2019-02-18T10:21:42.739Z,57.29
2019-02-18T10:24:12.491Z,56.69
2019-02-18T10:26:42.242Z,56.04
2019-02-18T10:29:12.019Z,56.35
2019-02-18T10:31:41.839Z,55.78
2019-02-18T10:34:23.588Z,55.73
2019-02-18T10:36:53.403Z,55.03
2019-02-18T10:39:23.208Z,55.35
2019-02-18T10:41:52.929Z,55.21
2019-02-18T10:44:22.676Z,54.28
2019-02-18T10:46:52.926Z,54.05
2019-02-18T10:49:22.651Z,53.92
2019-02-18T10:51:53.307Z,54.27
2019-02-18T10:54:23.029Z,54.92
2019-02-18T10:56:52.985Z,53.70
2019-02-18T10:59:22.771Z,53.31
2019-02-18T11:01:52.426Z,53.74
2019-02-18T11:04:22.148Z,53.73
2019-02-18T11:06:52.189Z,53.33
2019-02-18T11:09:21.903Z,52.11
2019-02-18T11:11:51.628Z,52.93
2019-02-18T11:14:21.398Z,52.20
2019-02-18T11:16:51.148Z,51.54
2019-02-18T11:19:20.797Z,51.32
2019-02-18T11:21:50.566Z,52.37
2019-02-18T11:24:20.812Z,51.49
2019-02-18T11:26:50.671Z,52.16
2019-02-18T11:29:20.365Z,51.31
2019-02-18T11:31:50.287Z,49.99
2019-02-18T11:34:19.999Z,50.65
2019-02-18T11:36:49.782Z,50.61
2019-02-18T11:39:19.509Z,49.65
2019-02-18T11:41:49.287Z,50.88
2019-02-18T11:44:19.095Z,51.34
2019-02-18T11:46:48.754Z,50.06
2019-02-18T11:49:18.473Z,49.43
2019-02-18T11:51:48.250Z,50.26
2019-02-18T11:54:18.256Z,49.16
2019-02-18T11:56:47.975Z,49.19
2019-02-18T11:59:24.304Z,49.52
2019-02-18T12:01:49.201Z,48.84
2019-02-18T12:04:18.971Z,48.43
2019-02-18T12:06:48.699Z,48.60
2019-02-18T12:09:18.505Z,48.56
2019-02-18T12:11:48.213Z,48.17
2019-02-18T12:14:17.896Z,48.68
2019-02-18T12:16:47.645Z,47.97
2019-02-18T12:19:17.382Z,47.80
2019-02-18T12:21:47.181Z,47.87
2019-02-18T12:24:17.074Z,47.45
2019-02-18T12:26:46.858Z,45.30
2019-02-18T12:29:26.057Z,44.82
2019-02-18T12:31:48.060Z,44.68
2019-02-18T12:34:17.787Z,45.26
2019-02-18T12:36:47.566Z,44.14
2019-02-18T12:39:17.265Z,45.42
2019-02-18T12:41:48.891Z,44.92
2019-02-18T12:44:18.436Z,45.64
2019-02-18T12:46:48.162Z,44.09
2019-02-18T12:49:17.940Z,44.68
2019-02-18T12:51:47.934Z,44.84
2019-02-18T12:54:17.710Z,45.45
2019-02-18T12:56:47.440Z,45.65
2019-02-18T12:59:17.241Z,46.28
2019-02-18T13:01:47.097Z,46.76
2019-02-18T13:04:16.812Z,46.86
2019-02-18T13:06:46.603Z,47.21
2019-02-18T13:09:16.561Z,46.97
2019-02-18T13:11:46.208Z,46.98
2019-02-18T13:14:15.933Z,46.30
2019-02-18T13:16:46.820Z,46.31
2019-02-18T13:19:16.609Z,46.17
2019-02-18T13:21:46.331Z,45.75
2019-02-18T13:24:16.116Z,46.23
2019-02-18T13:26:45.864Z,45.91
2019-02-18T13:29:15.586Z,45.57
2019-02-18T13:31:45.372Z,45.99
2019-02-18T13:34:15.096Z,45.98
2019-02-18T13:36:44.816Z,46.09
2019-02-18T13:39:14.600Z,46.40
2019-02-18T13:41:44.318Z,46.62
2019-02-18T13:44:14.041Z,47.33
2019-02-18T13:46:43.826Z,46.78
2019-02-18T13:49:13.580Z,46.23
2019-02-18T13:51:43.353Z,46.54
2019-02-18T13:54:13.511Z,46.04
2019-02-18T13:56:43.304Z,45.99
2019-02-18T13:59:12.994Z,46.64
2019-02-18T14:01:42.742Z,47.21
2019-02-18T14:04:12.498Z,47.27
2019-02-18T14:06:42.241Z,47.00
2019-02-18T14:09:12.280Z,47.17
2019-02-18T14:11:41.996Z,46.38
2019-02-18T14:14:11.751Z,46.96
2019-02-18T14:16:41.447Z,47.25
2019-02-18T14:19:11.234Z,47.03
2019-02-18T14:21:40.996Z,47.39
2019-02-18T14:24:10.752Z,46.62
2019-02-18T14:26:40.507Z,47.32
2019-02-18T14:29:10.230Z,47.27
2019-02-18T14:31:39.998Z,47.23
2019-02-18T14:34:09.719Z,46.90
2019-02-18T14:36:39.507Z,47.20
2019-02-18T14:39:10.793Z,47.81
2019-02-18T14:41:40.580Z,47.08
2019-02-18T14:44:10.303Z,47.58
2019-02-18T14:46:40.071Z,47.67
2019-02-18T14:49:09.802Z,47.07
2019-02-18T14:51:40.028Z,47.19
2019-02-18T14:54:09.786Z,47.65
2019-02-18T14:56:40.994Z,47.50
2019-02-18T14:59:10.915Z,47.13
2019-02-18T15:01:40.617Z,47.92
2019-02-18T15:04:10.377Z,47.88
2019-02-18T15:06:40.365Z,48.03
2019-02-18T15:09:10.118Z,48.14
2019-02-18T15:11:39.879Z,47.69
2019-02-18T15:14:09.751Z,48.56
2019-02-18T15:16:39.474Z,48.32
2019-02-18T15:19:09.606Z,48.13
2019-02-18T15:21:39.339Z,48.67
2019-02-18T15:24:09.116Z,49.29
2019-02-18T15:26:38.887Z,49.46
2019-02-18T15:29:08.627Z,49.72
2019-02-18T15:31:38.408Z,50.16
2019-02-18T15:34:08.615Z,50.13
2019-02-18T15:36:38.565Z,50.19
2019-02-18T15:39:08.372Z,50.57
2019-02-18T15:41:40.919Z,50.61
2019-02-18T15:44:10.580Z,50.90
2019-02-18T15:46:40.267Z,51.33
2019-02-18T15:49:10.031Z,51.08
2019-02-18T15:51:39.759Z,51.79
2019-02-18T15:54:09.549Z,52.01
2019-02-18T15:56:39.289Z,52.08
2019-02-18T15:59:08.991Z,52.21
2019-02-18T16:01:39.232Z,52.43
2019-02-18T16:04:08.964Z,53.16
2019-02-18T16:06:38.763Z,53.03
2019-02-18T16:09:08.493Z,53.38
2019-02-18T16:11:38.906Z,53.65
2019-02-18T16:14:08.794Z,53.71
2019-02-18T16:16:38.800Z,54.23
2019-02-18T16:19:08.671Z,54.58
2019-02-18T16:21:38.395Z,55.31
2019-02-18T16:24:08.222Z,55.29
2019-02-18T16:26:37.953Z,55.64
2019-02-18T16:29:07.724Z,56.02
2019-02-18T16:31:37.661Z,56.41
2019-02-18T16:34:07.516Z,56.56
2019-02-18T16:36:37.296Z,57.13
2019-02-18T16:39:07.520Z,57.42
2019-02-18T16:41:37.302Z,57.47
2019-02-18T16:44:07.040Z,57.80
2019-02-18T16:46:36.801Z,57.83
2019-02-18T16:49:06.945Z,58.13
2019-02-18T16:51:36.672Z,58.46
2019-02-18T16:54:06.463Z,58.56
2019-02-18T16:56:36.191Z,58.78
2019-02-18T16:59:06.153Z,59.28
2019-02-18T17:01:35.874Z,60.04
2019-02-18T17:04:05.623Z,61.56
2019-02-18T17:06:35.385Z,62.13
2019-02-18T17:09:08.300Z,61.78
2019-02-18T17:11:38.309Z,61.99
2019-02-18T17:14:08.106Z,61.97
2019-02-18T17:16:37.835Z,61.90
2019-02-18T17:19:07.850Z,62.13
2019-02-18T17:21:37.708Z,62.15
2019-02-18T17:24:07.675Z,62.21
2019-02-18T17:26:37.913Z,62.36
2019-02-18T17:29:07.642Z,62.69
2019-02-18T17:31:37.622Z,62.99
2019-02-18T17:34:07.369Z,63.46
2019-02-18T17:36:37.151Z,63.82
2019-02-18T17:39:07.268Z,63.97
2019-02-18T17:41:37.869Z,64.22
2019-02-18T17:44:07.623Z,64.08
2019-02-18T17:46:37.692Z,64.03
2019-02-18T17:49:07.720Z,64.19
2019-02-18T17:51:37.510Z,64.05
2019-02-18T17:54:13.193Z,64.27
2019-02-18T17:56:43.128Z,64.20
2019-02-18T17:59:12.916Z,64.36
2019-02-18T18:01:49.983Z,64.49
2019-02-18T18:04:14.953Z,64.57
2019-02-18T18:06:46.510Z,64.71
2019-02-18T18:09:18.946Z,64.78
2019-02-18T18:11:49.343Z,64.76
2019-02-18T18:14:19.619Z,65.17
2019-02-18T18:16:50.407Z,65.28
2019-02-18T18:19:20.527Z,65.75
2019-02-18T18:21:51.327Z,66.15
2019-02-18T18:24:23.420Z,66.41
2019-02-18T18:26:53.861Z,66.23
2019-02-18T18:29:25.597Z,66.16
2019-02-18T18:31:56.662Z,66.68
2019-02-18T18:34:27.759Z,66.45
2019-02-18T18:37:00.016Z,66.58
2019-02-18T18:39:30.925Z,66.15
2019-02-18T18:42:01.669Z,66.11
2019-02-18T18:44:34.611Z,66.07
2019-02-18T18:47:06.794Z,66.50
2019-02-18T18:49:37.277Z,66.46
2019-02-18T18:52:10.323Z,66.72
2019-02-18T18:54:45.006Z,67.40
2019-02-18T18:57:15.543Z,67.09
2019-02-18T18:59:46.115Z,66.84
2019-02-18T19:02:29.176Z,67.20
2019-02-18T19:05:00.052Z,67.33
2019-02-18T19:07:30.613Z,67.09
2019-02-18T19:10:03.420Z,67.28
2019-02-18T19:12:39.304Z,68.01
2019-02-18T19:15:14.398Z,68.04
2019-02-18T19:17:45.220Z,67.49
2019-02-18T19:20:15.682Z,67.96
2019-02-18T19:22:50.984Z,67.97
2019-02-18T19:25:21.274Z,67.23
2019-02-18T19:27:52.728Z,67.27
2019-02-18T19:30:32.112Z,67.41
2019-02-18T19:33:03.036Z,67.35
2019-02-18T19:35:33.888Z,68.35
2019-02-18T19:38:04.743Z,68.65
2019-02-18T19:40:35.635Z,68.03
2019-02-18T19:43:06.894Z,67.91
2019-02-18T19:45:38.537Z,67.99
2019-02-18T19:48:09.147Z,68.04
2019-02-18T19:50:40.123Z,68.54
2019-02-18T19:53:10.771Z,67.98
2019-02-18T19:55:41.511Z,68.30
2019-02-18T19:58:15.494Z,68.62
2019-02-18T20:00:46.116Z,68.70
2019-02-18T20:03:18.602Z,69.12
2019-02-18T20:05:49.043Z,68.49
2019-02-18T20:08:21.715Z,68.70
2019-02-18T20:10:52.475Z,68.98
2019-02-18T20:13:23.164Z,68.50
2019-02-18T20:15:53.238Z,68.42
2019-02-18T20:18:23.155Z,68.34
2019-02-18T20:20:53.848Z,68.62
2019-02-18T20:23:25.568Z,68.87
2019-02-18T20:25:56.640Z,68.81
2019-02-18T20:28:27.171Z,68.44
2019-02-18T20:30:57.892Z,68.31
2019-02-18T20:33:53.730Z,68.35
2019-02-18T20:36:25.481Z,68.61
2019-02-18T20:38:56.126Z,68.79
2019-02-18T20:41:26.601Z,68.72
2019-02-18T20:43:58.142Z,69.09
2019-02-18T20:46:28.436Z,69.01
2019-02-18T20:48:58.973Z,69.19
2019-02-18T20:51:29.804Z,69.20
2019-02-18T20:54:01.778Z,69.43
2019-02-18T20:56:32.212Z,69.29
2019-02-18T20:59:11.029Z,69.42
2019-02-18T21:01:43.524Z,69.50
2019-02-18T21:04:14.025Z,69.70
2019-02-18T21:06:45.766Z,69.75
2019-02-18T21:09:17.228Z,69.78
2019-02-18T21:11:48.309Z,69.69
2019-02-18T21:14:19.873Z,69.94
2019-02-18T21:16:50.021Z,70.06
2019-02-18T21:19:21.259Z,70.08
2019-02-18T21:21:52.357Z,70.20
2019-02-18T21:24:22.469Z,70.09
2019-02-18T21:26:52.712Z,69.71
2019-02-18T21:29:26.645Z,69.98
2019-02-18T21:31:57.452Z,70.15
2019-02-18T21:34:28.261Z,70.08
2019-02-18T21:36:58.928Z,70.50
2019-02-18T21:39:29.827Z,70.50
2019-02-18T21:41:59.995Z,70.59
2019-02-18T21:44:33.085Z,71.03
2019-02-18T21:47:03.665Z,70.94
2019-02-18T21:49:33.574Z,70.74
2019-02-18T21:52:04.193Z,70.79
2019-02-18T21:54:34.502Z,71.26
2019-02-18T21:57:04.897Z,71.52
2019-02-18T21:59:35.077Z,71.77
2019-02-18T22:02:05.184Z,71.14
2019-02-18T22:04:35.195Z,71.33
2019-02-18T22:07:05.040Z,72.18
2019-02-18T22:09:34.798Z,71.47
2019-02-18T22:12:04.581Z,71.43
2019-02-18T22:14:35.797Z,71.21
2019-02-18T22:17:05.740Z,71.23
2019-02-18T22:19:35.518Z,71.47
2019-02-18T22:22:05.272Z,71.04
2019-02-18T22:24:35.025Z,71.14
2019-02-18T22:27:04.767Z,70.96
2019-02-18T22:29:34.826Z,71.08
2019-02-18T22:32:04.545Z,70.99
2019-02-18T22:34:34.336Z,71.21
2019-02-18T22:37:04.064Z,71.29
2019-02-18T22:39:33.855Z,71.41
2019-02-18T22:42:03.649Z,71.11
2019-02-18T22:44:41.588Z,71.20
2019-02-18T22:47:05.139Z,71.25
2019-02-18T22:49:34.868Z,71.52
2019-02-18T22:52:04.651Z,71.21
2019-02-18T22:54:34.370Z,71.42
2019-02-18T22:57:04.132Z,71.34
2019-02-18T22:59:33.886Z,71.17
2019-02-18T23:02:03.645Z,71.49
2019-02-18T23:04:33.400Z,71.38
2019-02-18T23:07:03.112Z,71.38
2019-02-18T23:09:32.893Z,71.18
2019-02-18T23:12:02.618Z,71.26
2019-02-18T23:14:32.553Z,72.00
2019-02-18T23:17:02.305Z,72.02
2019-02-18T23:19:32.079Z,71.85
2019-02-18T23:22:01.836Z,71.71
2019-02-18T23:24:31.594Z,71.86
2019-02-18T23:27:01.360Z,71.88
2019-02-18T23:29:31.256Z,71.53
2019-02-18T23:32:00.984Z,71.66
2019-02-18T23:34:30.706Z,71.73
2019-02-18T23:37:00.460Z,71.78
2019-02-18T23:39:30.218Z,71.75
2019-02-18T23:41:59.929Z,72.21
2019-02-18T23:44:29.716Z,71.89
2019-02-18T23:46:59.435Z,72.00
2019-02-18T23:49:29.221Z,72.12
2019-02-18T23:51:58.947Z,72.09
2019-02-18T23:54:28.703Z,72.05
2019-02-18T23:56:58.458Z,72.08
2019-02-18T23:59:28.238Z,72.06
